createdAt,value
2018-01-24T00:01:54.556Z,-68
2018-01-24T00:04:23.089Z,-69
2018-01-24T00:06:51.605Z,-68
2018-01-24T00:09:20.817Z,-69
2018-01-24T00:11:50.812Z,-69
2018-01-24T00:14:19.292Z,-68
2018-01-24T00:16:47.781Z,-68
2018-01-24T00:19:16.313Z,-68
2018-01-24T00:21:44.912Z,-68
2018-01-24T00:24:13.430Z,-68
2018-01-24T00:26:41.949Z,-68
2018-01-24T00:29:11.311Z,-68
2018-01-24T00:31:40.925Z,-68
2018-01-24T00:34:11.046Z,-68
2018-01-24T00:36:40.470Z,-69
2018-01-24T00:39:09.164Z,-68
2018-01-24T00:41:38.249Z,-68
2018-01-24T00:44:06.957Z,-68
2018-01-24T00:46:35.665Z,-68
2018-01-24T00:49:04.728Z,-69
2018-01-24T00:51:34.020Z,-70
2018-01-24T00:54:02.952Z,-68
2018-01-24T00:56:32.046Z,-69
2018-01-24T00:59:00.733Z,-68
2018-01-24T01:01:29.236Z,-68
2018-01-24T01:03:58.184Z,-65
2018-01-24T01:06:26.632Z,-65
2018-01-24T01:08:55.120Z,-66
2018-01-24T01:11:23.894Z,-65
2018-01-24T01:13:52.783Z,-66
2018-01-24T01:16:21.572Z,-65
2018-01-24T01:18:50.505Z,-66
2018-01-24T01:21:19.201Z,-66
2018-01-24T01:23:47.649Z,-66
2018-01-24T01:26:16.185Z,-65
2018-01-24T01:28:44.852Z,-66
2018-01-24T01:31:13.388Z,-65
2018-01-24T01:33:41.999Z,-65
2018-01-24T01:36:10.529Z,-65
2018-01-24T01:38:39.721Z,-67
2018-01-24T01:41:08.175Z,-66
2018-01-24T01:43:37.646Z,-66
2018-01-24T01:46:07.181Z,-66
2018-01-24T01:48:35.734Z,-66
2018-01-24T01:51:05.166Z,-66
2018-01-24T01:53:33.879Z,-66
2018-01-24T01:56:02.967Z,-65
2018-01-24T01:58:31.842Z,-65
2018-01-24T02:01:00.633Z,-65
2018-01-24T02:03:29.754Z,-66
2018-01-24T02:05:58.413Z,-65
2018-01-24T02:08:27.372Z,-66
2018-01-24T02:10:56.460Z,-67
2018-01-24T02:13:26.303Z,-66
2018-01-24T02:15:54.802Z,-65
2018-01-24T02:18:23.265Z,-67
2018-01-24T02:20:51.713Z,-67
2018-01-24T02:23:20.406Z,-66
2018-01-24T02:25:49.483Z,-66
2018-01-24T02:28:18.013Z,-67
2018-01-24T02:30:46.782Z,-67
2018-01-24T02:33:15.251Z,-67
2018-01-24T02:35:45.680Z,-67
2018-01-24T02:38:28.153Z,-66
2018-01-24T02:40:56.708Z,-68
2018-01-24T02:43:25.188Z,-68
2018-01-24T02:45:53.976Z,-67
2018-01-24T02:48:22.488Z,-67
2018-01-24T02:50:51.310Z,-66
2018-01-24T02:53:19.862Z,-68
2018-01-24T02:55:48.315Z,-69
2018-01-24T02:58:16.892Z,-68
2018-01-24T03:00:46.050Z,-68
2018-01-24T03:03:16.144Z,-69
2018-01-24T03:05:45.012Z,-68
2018-01-24T03:08:13.446Z,-66
2018-01-24T03:10:42.072Z,-68
2018-01-24T03:13:11.400Z,-69
2018-01-24T03:15:40.086Z,-69
2018-01-24T03:18:08.992Z,-68
2018-01-24T03:20:37.461Z,-68
2018-01-24T03:23:05.885Z,-66
2018-01-24T03:25:35.068Z,-66
2018-01-24T03:28:03.969Z,-67
2018-01-24T03:30:32.717Z,-67
2018-01-24T03:33:01.200Z,-66
2018-01-24T03:35:29.654Z,-68
2018-01-24T03:37:58.466Z,-68
2018-01-24T03:40:27.183Z,-68
2018-01-24T03:42:57.146Z,-68
2018-01-24T03:45:25.961Z,-67
2018-01-24T03:47:54.546Z,-66
2018-01-24T03:50:22.998Z,-65
2018-01-24T03:52:51.510Z,-67
2018-01-24T03:55:19.969Z,-67
2018-01-24T03:57:48.776Z,-67
2018-01-24T04:00:17.556Z,-66
2018-01-24T04:02:46.080Z,-66
2018-01-24T04:05:14.788Z,-65
2018-01-24T04:07:43.452Z,-66
2018-01-24T04:10:11.933Z,-66
2018-01-24T04:12:41.385Z,-65
2018-01-24T04:15:10.134Z,-66
2018-01-24T04:17:39.342Z,-66
2018-01-24T04:20:08.637Z,-66
2018-01-24T04:22:37.962Z,-66
2018-01-24T04:25:06.964Z,-66
2018-01-24T04:27:35.412Z,-68
2018-01-24T04:30:04.361Z,-66
2018-01-24T04:32:33.047Z,-67
2018-01-24T04:35:02.557Z,-67
2018-01-24T04:37:32.460Z,-68
2018-01-24T04:40:01.403Z,-67
2018-01-24T04:42:30.675Z,-67
2018-01-24T04:44:59.220Z,-68
2018-01-24T04:47:27.905Z,-68
2018-01-24T04:49:56.500Z,-67
2018-01-24T04:52:24.932Z,-67
2018-01-24T04:54:53.364Z,-66
2018-01-24T04:57:21.877Z,-66
2018-01-24T04:59:50.680Z,-67
2018-01-24T05:02:19.745Z,-69
2018-01-24T05:04:48.276Z,-70
2018-01-24T05:07:17.698Z,-69
2018-01-24T05:09:46.637Z,-68
2018-01-24T05:12:15.509Z,-66
2018-01-24T05:14:44.377Z,-69
2018-01-24T05:17:13.061Z,-69
2018-01-24T05:19:42.569Z,-69
2018-01-24T05:22:11.308Z,-66
2018-01-24T05:24:40.461Z,-66
2018-01-24T05:27:09.255Z,-68
2018-01-24T05:29:37.760Z,-69
2018-01-24T05:32:07.010Z,-69
2018-01-24T05:34:35.856Z,-69
2018-01-24T05:37:04.525Z,-69
2018-01-24T05:39:33.341Z,-69
2018-01-24T05:42:02.005Z,-67
2018-01-24T05:44:30.481Z,-66
2018-01-24T05:47:00.602Z,-66
2018-01-24T05:49:29.405Z,-66
2018-01-24T05:51:58.059Z,-66
2018-01-24T05:54:26.648Z,-66
2018-01-24T05:56:55.153Z,-66
2018-01-24T05:59:23.580Z,-66
2018-01-24T06:01:52.024Z,-66
2018-01-24T06:04:20.895Z,-66
2018-01-24T06:06:49.865Z,-66
2018-01-24T06:09:18.888Z,-65
2018-01-24T06:11:48.224Z,-66
2018-01-24T06:14:17.409Z,-65
2018-01-24T06:16:45.868Z,-66
2018-01-24T06:19:14.305Z,-66
2018-01-24T06:21:42.729Z,-66
2018-01-24T06:24:11.277Z,-66
2018-01-24T06:26:40.256Z,-66
2018-01-24T06:29:09.970Z,-65
2018-01-24T06:31:38.678Z,-65
2018-01-24T06:34:07.618Z,-67
2018-01-24T06:36:36.132Z,-66
2018-01-24T06:39:05.337Z,-68
2018-01-24T06:41:33.854Z,-67
2018-01-24T06:44:02.722Z,-66
2018-01-24T06:46:31.460Z,-66
2018-01-24T06:49:00.931Z,-66
2018-01-24T06:51:29.386Z,-65
2018-01-24T06:53:58.044Z,-66
2018-01-24T06:56:27.502Z,-66
2018-01-24T06:58:56.392Z,-67
2018-01-24T07:01:25.183Z,-66
2018-01-24T07:03:53.869Z,-66
2018-01-24T07:06:22.345Z,-65
2018-01-24T07:08:50.809Z,-65
2018-01-24T07:11:19.425Z,-68
2018-01-24T07:14:53.569Z,-66
2018-01-24T07:17:22.189Z,-66
2018-01-24T07:19:50.704Z,-66
2018-01-24T07:22:19.181Z,-67
2018-01-24T07:24:47.713Z,-67
2018-01-24T07:27:16.965Z,-66
2018-01-24T07:29:45.437Z,-66
2018-01-24T07:32:14.163Z,-66
2018-01-24T07:34:42.603Z,-66
2018-01-24T07:37:11.017Z,-62
2018-01-24T07:39:39.579Z,-62
2018-01-24T07:42:08.105Z,-63
2018-01-24T07:44:37.544Z,-62
2018-01-24T07:47:06.313Z,-63
2018-01-24T07:49:34.835Z,-63
2018-01-24T07:52:03.402Z,-64
2018-01-24T07:54:32.157Z,-63
2018-01-24T07:57:01.809Z,-63
2018-01-24T07:59:30.709Z,-63
2018-01-24T08:01:59.180Z,-63
2018-01-24T08:04:27.765Z,-63
2018-01-24T08:06:56.276Z,-61
2018-01-24T08:09:24.800Z,-61
2018-01-24T08:11:53.254Z,-62
2018-01-24T08:14:22.052Z,-62
2018-01-24T08:16:51.496Z,-62
2018-01-24T08:19:20.623Z,-62
2018-01-24T08:21:49.107Z,-62
2018-01-24T08:24:17.749Z,-63
2018-01-24T08:26:46.201Z,-63
2018-01-24T08:29:15.579Z,-63
2018-01-24T08:31:44.030Z,-63
2018-01-24T08:34:12.726Z,-64
2018-01-24T08:36:41.181Z,-65
2018-01-24T08:39:09.894Z,-64
2018-01-24T08:41:38.767Z,-65
2018-01-24T08:44:07.381Z,-63
2018-01-24T08:46:36.337Z,-63
2018-01-24T08:49:04.793Z,-64
2018-01-24T08:51:33.945Z,-65
2018-01-24T08:54:02.497Z,-64
2018-01-24T08:56:30.924Z,-64
2018-01-24T08:58:59.460Z,-65
2018-01-24T09:01:28.668Z,-65
2018-01-24T09:03:57.105Z,-65
2018-01-24T09:06:25.534Z,-65
2018-01-24T09:08:53.985Z,-64
2018-01-24T09:11:23.219Z,-64
2018-01-24T09:13:51.762Z,-64
2018-01-24T09:16:20.976Z,-64
2018-01-24T09:18:49.412Z,-65
2018-01-24T09:21:18.386Z,-64
2018-01-24T09:23:47.157Z,-65
2018-01-24T09:26:16.014Z,-64
2018-01-24T09:28:45.233Z,-65
2018-01-24T09:31:13.769Z,-64
2018-01-24T09:33:42.290Z,-64
2018-01-24T09:36:11.092Z,-64
2018-01-24T09:38:41.020Z,-64
2018-01-24T09:41:09.516Z,-64
2018-01-24T09:43:38.231Z,-64
2018-01-24T09:46:06.733Z,-64
2018-01-24T09:48:36.225Z,-64
2018-01-24T09:51:04.931Z,-66
2018-01-24T09:53:34.177Z,-65
2018-01-24T09:56:03.049Z,-65
2018-01-24T09:58:32.098Z,-65
2018-01-24T10:01:00.578Z,-65
2018-01-24T10:03:29.011Z,-65
2018-01-24T10:05:57.880Z,-64
2018-01-24T10:08:26.384Z,-65
2018-01-24T10:10:54.893Z,-64
2018-01-24T10:13:23.337Z,-64
2018-01-24T10:15:51.838Z,-64
2018-01-24T10:18:20.309Z,-64
2018-01-24T10:20:49.730Z,-64
2018-01-24T10:23:18.616Z,-62
2018-01-24T10:29:09.204Z,-61
2018-01-24T10:31:38.799Z,-61
2018-01-24T10:34:08.119Z,-61
2018-01-24T10:36:37.840Z,-62
2018-01-24T10:39:07.296Z,-62
2018-01-24T10:41:36.854Z,-61
2018-01-24T10:44:05.153Z,-61
2018-01-24T10:46:34.489Z,-63
2018-01-24T10:49:04.864Z,-63
2018-01-24T10:51:33.169Z,-62
2018-01-24T10:54:01.438Z,-61
2018-01-24T10:56:29.933Z,-63
2018-01-24T10:58:58.881Z,-62
2018-01-24T11:01:27.168Z,-63
2018-01-24T11:03:55.928Z,-63
2018-01-24T11:06:24.213Z,-63
2018-01-24T11:08:52.518Z,-62
2018-01-24T11:11:22.595Z,-62
2018-01-24T11:13:51.554Z,-62
2018-01-24T11:16:20.313Z,-61
2018-01-24T11:18:48.961Z,-61
2018-01-24T11:21:17.535Z,-61
2018-01-24T11:23:47.508Z,-61
2018-01-24T11:26:17.010Z,-61
2018-01-24T11:28:45.601Z,-62
2018-01-24T11:31:14.064Z,-61
2018-01-24T11:33:43.329Z,-62
2018-01-24T11:37:15.643Z,-61
2018-01-24T11:39:44.649Z,-62
2018-01-24T11:42:13.276Z,-62
2018-01-24T11:44:42.512Z,-61
2018-01-24T11:47:11.156Z,-62
2018-01-24T11:49:39.969Z,-62
2018-01-24T11:52:08.977Z,-64
2018-01-24T11:54:37.465Z,-63
2018-01-24T11:57:05.817Z,-64
2018-01-24T11:59:35.691Z,-63
2018-01-24T12:02:04.476Z,-64
2018-01-24T12:04:33.198Z,-63
2018-01-24T12:07:01.604Z,-63
2018-01-24T12:09:30.705Z,-62
2018-01-24T12:11:59.541Z,-62
2018-01-24T12:14:29.049Z,-63
2018-01-24T12:16:57.714Z,-62
2018-01-24T12:19:26.128Z,-62
2018-01-24T12:21:55.505Z,-62
2018-01-24T12:24:24.361Z,-62
2018-01-24T12:26:53.058Z,-63
2018-01-24T12:29:21.409Z,-63
2018-01-24T12:31:51.013Z,-63
2018-01-24T12:34:19.369Z,-62
2018-01-24T12:36:49.069Z,-63
2018-01-24T12:39:17.748Z,-64
2018-01-24T12:41:46.344Z,-64
2018-01-24T12:44:14.719Z,-64
2018-01-24T12:46:43.795Z,-62
2018-01-24T12:49:13.265Z,-62
2018-01-24T12:51:41.653Z,-62
2018-01-24T12:54:09.996Z,-62
2018-01-24T12:56:39.457Z,-62
2018-01-24T12:59:07.769Z,-61
2018-01-24T13:01:37.098Z,-61
2018-01-24T13:04:06.829Z,-61
2018-01-24T13:06:35.134Z,-61
2018-01-24T13:09:04.401Z,-63
2018-01-24T13:11:32.749Z,-61
2018-01-24T13:14:02.017Z,-62
2018-01-24T13:16:30.664Z,-61
2018-01-24T13:18:59.249Z,-61
2018-01-24T13:21:27.544Z,-61
2018-01-24T13:23:56.225Z,-62
2018-01-24T13:26:24.556Z,-61
2018-01-24T13:28:53.240Z,-61
2018-01-24T13:31:21.672Z,-62
2018-01-24T13:33:50.353Z,-61
2018-01-24T13:36:18.996Z,-62
2018-01-24T13:38:47.356Z,-61
2018-01-24T13:41:17.681Z,-61
2018-01-24T13:43:46.256Z,-62
2018-01-24T13:46:15.941Z,-61
2018-01-24T13:48:44.364Z,-61
2018-01-24T13:51:12.644Z,-61
2018-01-24T13:53:41.700Z,-61
2018-01-24T13:56:10.149Z,-61
2018-01-24T13:58:39.494Z,-61
2018-01-24T14:01:08.309Z,-61
2018-01-24T14:03:36.773Z,-61
2018-01-24T14:06:05.061Z,-61
2018-01-24T14:08:33.359Z,-61
2018-01-24T14:11:01.712Z,-61
2018-01-24T14:13:30.256Z,-61
2018-01-24T14:15:58.526Z,-61
2018-01-24T14:18:26.929Z,-61
2018-01-24T14:20:55.529Z,-61
2018-01-24T14:23:24.089Z,-61
2018-01-24T14:25:52.640Z,-61
2018-01-24T14:28:21.677Z,-62
2018-01-24T14:30:49.967Z,-61
2018-01-24T14:33:18.247Z,-62
2018-01-24T14:35:46.836Z,-61
2018-01-24T14:38:15.136Z,-61
2018-01-24T14:40:43.952Z,-61
2018-01-24T14:43:12.812Z,-63
2018-01-24T14:45:45.392Z,-61
2018-01-24T14:48:14.217Z,-62
2018-01-24T14:50:43.383Z,-62
2018-01-24T14:53:12.620Z,-63
2018-01-24T14:55:41.647Z,-63
2018-01-24T14:58:09.956Z,-63
2018-01-24T15:00:38.356Z,-63
2018-01-24T15:03:07.565Z,-64
2018-01-24T15:05:36.597Z,-63
2018-01-24T15:08:06.006Z,-63
2018-01-24T15:10:35.792Z,-64
2018-01-24T15:13:04.532Z,-63
2018-01-24T15:15:33.080Z,-63
2018-01-24T15:18:01.456Z,-64
2018-01-24T15:20:30.032Z,-63
2018-01-24T15:22:58.541Z,-63
2018-01-24T15:25:27.280Z,-63
2018-01-24T15:27:55.683Z,-62
2018-01-24T15:30:27.185Z,-62
2018-01-24T15:32:56.214Z,-63
2018-01-24T15:35:24.585Z,-63
2018-01-24T15:37:53.141Z,-62
2018-01-24T15:40:22.517Z,-62
2018-01-24T15:42:50.985Z,-62
2018-01-24T15:45:19.566Z,-63
2018-01-24T15:47:47.925Z,-64
2018-01-24T15:50:17.213Z,-64
2018-01-24T15:52:45.809Z,-64
2018-01-24T15:55:14.452Z,-64
2018-01-24T15:57:44.884Z,-63
2018-01-24T16:00:13.584Z,-63
2018-01-24T16:02:41.910Z,-63
2018-01-24T16:05:11.042Z,-63
2018-01-24T16:07:40.369Z,-63
2018-01-24T16:10:08.789Z,-63
2018-01-24T16:12:37.209Z,-63
2018-01-24T16:15:05.919Z,-63
2018-01-24T16:17:35.034Z,-63
2018-01-24T16:20:03.402Z,-63
2018-01-24T16:22:31.738Z,-62
2018-01-24T16:25:00.057Z,-63
2018-01-24T16:27:28.350Z,-63
2018-01-24T16:29:56.813Z,-64
2018-01-24T16:32:25.074Z,-64
2018-01-24T16:34:53.569Z,-63
2018-01-24T16:37:23.694Z,-64
2018-01-24T16:39:52.030Z,-61
2018-01-24T16:42:20.295Z,-61
2018-01-24T16:44:48.648Z,-61
2018-01-24T16:47:17.242Z,-62
2018-01-24T16:49:45.828Z,-61
2018-01-24T16:52:14.378Z,-62
2018-01-24T16:54:43.121Z,-62
2018-01-24T16:57:13.689Z,-62
2018-01-24T16:59:42.377Z,-62
2018-01-24T17:02:10.718Z,-62
2018-01-24T17:04:38.996Z,-62
2018-01-24T17:07:07.516Z,-62
2018-01-24T17:09:36.733Z,-62
2018-01-24T17:12:05.156Z,-62
2018-01-24T17:14:33.433Z,-62
2018-01-24T17:17:01.705Z,-62
2018-01-24T17:19:30.087Z,-62
2018-01-24T17:22:00.333Z,-62
2018-01-24T17:24:29.364Z,-63
2018-01-24T17:26:57.647Z,-63
2018-01-24T17:29:25.917Z,-63
2018-01-24T17:31:54.181Z,-63
2018-01-24T17:34:22.473Z,-62
2018-01-24T17:36:50.761Z,-65
2018-01-24T17:39:19.045Z,-64
2018-01-24T17:41:47.342Z,-64
2018-01-24T17:44:15.649Z,-64
2018-01-24T17:46:44.706Z,-64
2018-01-24T17:49:13.008Z,-63
2018-01-24T17:51:41.297Z,-63
2018-01-24T17:54:10.417Z,-64
2018-01-24T17:56:38.741Z,-65
2018-01-24T17:59:08.569Z,-65
2018-01-24T18:01:37.940Z,-65
2018-01-24T18:04:06.393Z,-65
2018-01-24T18:06:35.089Z,-65
2018-01-24T18:09:04.395Z,-66
2018-01-24T18:11:35.313Z,-66
2018-01-24T18:14:03.606Z,-66
2018-01-24T18:16:31.960Z,-67
2018-01-24T18:19:00.565Z,-66
2018-01-24T18:21:29.102Z,-66
2018-01-24T18:23:57.610Z,-66
2018-01-24T18:26:26.749Z,-66
2018-01-24T18:28:55.145Z,-65
2018-01-24T18:31:23.916Z,-65
2018-01-24T18:33:52.220Z,-65
2018-01-24T18:36:21.248Z,-65
2018-01-24T18:38:49.659Z,-66
2018-01-24T18:41:17.996Z,-66
2018-01-24T18:43:47.013Z,-66
2018-01-24T18:46:15.308Z,-66
2018-01-24T18:48:44.613Z,-64
2018-01-24T18:51:13.589Z,-65
2018-01-24T18:53:42.124Z,-65
2018-01-24T18:56:10.469Z,-65
2018-01-24T18:58:38.773Z,-65
2018-01-24T19:01:07.349Z,-64
2018-01-24T19:03:36.685Z,-66
2018-01-24T19:06:05.210Z,-66
2018-01-24T19:08:33.765Z,-66
2018-01-24T19:11:02.068Z,-66
2018-01-24T19:13:30.397Z,-66
2018-01-24T19:16:00.199Z,-66
2018-01-24T19:18:28.727Z,-66
2018-01-24T19:20:57.207Z,-66
2018-01-24T19:23:26.443Z,-66
2018-01-24T19:25:55.141Z,-66
2018-01-24T19:28:25.337Z,-65
2018-01-24T19:30:53.689Z,-65
2018-01-24T19:33:22.161Z,-65
2018-01-24T19:35:50.490Z,-65
2018-01-24T19:38:19.474Z,-65
2018-01-24T19:40:48.863Z,-64
2018-01-24T19:43:17.229Z,-64
2018-01-24T19:45:45.569Z,-65
2018-01-24T19:48:14.389Z,-64
2018-01-24T19:50:43.109Z,-65
2018-01-24T19:53:11.774Z,-64
2018-01-24T19:55:40.469Z,-64
2018-01-24T19:58:08.870Z,-64
2018-01-24T20:00:37.173Z,-64
2018-01-24T20:03:12.437Z,-64
2018-01-24T20:05:41.532Z,-65
2018-01-24T20:08:10.749Z,-65
2018-01-24T20:10:39.742Z,-64
2018-01-24T20:13:08.888Z,-65
2018-01-24T20:15:37.246Z,-65
2018-01-24T20:18:05.665Z,-65
2018-01-24T20:20:34.902Z,-66
